createdAt,value
2018-11-06T00:00:48.947Z,80.80
2018-11-06T00:05:52.797Z,81.30
2018-11-06T00:10:56.393Z,81.30
2018-11-06T00:16:00.013Z,81.10
2018-11-06T00:21:04.716Z,81.60
2018-11-06T00:26:09.140Z,80.90
2018-11-06T00:31:13.052Z,79.90
2018-11-06T00:36:16.784Z,79.10
2018-11-06T00:41:20.427Z,79.60
2018-11-06T00:46:24.098Z,80.00
2018-11-06T00:51:27.771Z,79.30
2018-11-06T00:56:32.643Z,79.80
2018-11-06T01:01:36.332Z,80.10
2018-11-06T01:06:40.209Z,79.70
2018-11-06T01:11:44.377Z,79.50
2018-11-06T01:16:48.323Z,79.20
2018-11-06T01:21:52.010Z,79.50
2018-11-06T01:26:56.185Z,79.00
2018-11-06T01:31:59.919Z,78.70
2018-11-06T01:37:03.754Z,79.10
2018-11-06T01:42:07.614Z,78.50
2018-11-06T01:47:12.087Z,78.70
2018-11-06T01:52:15.762Z,78.30
2018-11-06T01:57:20.835Z,78.90
2018-11-06T02:02:24.563Z,78.60
2018-11-06T02:07:28.402Z,78.90
2018-11-06T02:12:32.062Z,78.70
2018-11-06T02:17:36.358Z,78.50
2018-11-06T02:22:41.594Z,78.10
2018-11-06T02:27:45.300Z,78.10
2018-11-06T02:32:49.011Z,78.00
2018-11-06T02:37:52.921Z,78.00
2018-11-06T02:42:56.597Z,77.90
2018-11-06T02:48:00.371Z,78.00
2018-11-06T02:53:04.293Z,79.00
2018-11-06T02:58:08.009Z,80.30
2018-11-06T03:03:13.176Z,80.50
2018-11-06T03:08:18.268Z,80.00
2018-11-06T03:13:22.004Z,82.40
2018-11-06T03:18:25.931Z,81.70
2018-11-06T03:23:29.597Z,80.90
2018-11-06T03:28:33.295Z,80.40
2018-11-06T03:33:37.295Z,80.40
2018-11-06T03:38:40.993Z,80.30
2018-11-06T03:43:44.568Z,80.80
2018-11-06T03:48:48.156Z,80.30
2018-11-06T03:53:52.200Z,81.00
2018-11-06T03:58:59.131Z,79.60
2018-11-06T04:04:05.639Z,79.80
2018-11-06T04:09:13.743Z,79.60
2018-11-06T04:14:17.361Z,79.10
2018-11-06T04:19:20.908Z,79.20
2018-11-06T04:24:24.500Z,79.20
2018-11-06T04:29:28.099Z,78.80
2018-11-06T04:34:31.683Z,78.50
2018-11-06T04:39:35.358Z,78.80
2018-11-06T04:44:38.979Z,78.60
2018-11-06T04:49:42.582Z,79.00
2018-11-06T04:54:46.228Z,78.90
2018-11-06T04:59:49.812Z,78.60
2018-11-06T05:04:53.416Z,76.90
2018-11-06T05:09:57.830Z,76.70
2018-11-06T05:15:01.697Z,76.40
2018-11-06T05:20:10.423Z,77.20
2018-11-06T05:25:14.222Z,76.00
2018-11-06T05:30:17.800Z,74.80
2018-11-06T05:35:21.747Z,74.70
2018-11-06T05:40:37.246Z,76.30
2018-11-06T05:45:40.889Z,75.50
2018-11-06T05:50:45.098Z,74.50
2018-11-06T05:55:49.052Z,73.50
2018-11-06T06:00:53.570Z,74.00
2018-11-06T06:05:57.915Z,73.20
2018-11-06T06:11:01.606Z,74.90
2018-11-06T06:16:05.499Z,76.30
2018-11-06T06:21:09.576Z,77.60
2018-11-06T06:26:13.848Z,77.40
2018-11-06T06:31:17.556Z,79.00
2018-11-06T06:36:21.191Z,78.70
2018-11-06T06:41:24.793Z,78.20
2018-11-06T06:46:29.195Z,77.00
2018-11-06T06:51:32.867Z,76.80
2018-11-06T06:56:36.620Z,76.90
2018-11-06T07:01:40.269Z,78.50
2018-11-06T07:06:44.000Z,78.50
2018-11-06T07:11:47.703Z,77.70
2018-11-06T07:16:51.480Z,78.40
2018-11-06T07:21:55.195Z,76.80
2018-11-06T07:32:10.959Z,78.60
2018-11-06T07:37:14.516Z,78.40
2018-11-06T07:42:18.095Z,78.40
2018-11-06T07:47:22.072Z,77.40
2018-11-06T07:52:25.687Z,77.90
2018-11-06T07:57:29.277Z,77.70
2018-11-06T08:02:32.855Z,78.50
2018-11-06T08:07:36.558Z,78.40
2018-11-06T08:12:41.797Z,78.30
2018-11-06T08:17:46.184Z,78.10
2018-11-06T08:22:50.556Z,78.20
2018-11-06T08:27:55.955Z,77.20
2018-11-06T08:33:00.185Z,77.30
2018-11-06T08:38:04.092Z,76.80
2018-11-06T08:43:07.742Z,76.90
2018-11-06T08:48:12.077Z,76.90
2018-11-06T08:53:16.340Z,77.10
2018-11-06T08:58:22.281Z,76.30
2018-11-06T09:03:26.200Z,77.70
2018-11-06T09:08:30.107Z,77.50
2018-11-06T09:13:35.010Z,76.10
2018-11-06T09:18:38.691Z,75.40
2018-11-06T09:23:42.331Z,75.30
2018-11-06T09:28:47.218Z,74.40
2018-11-06T09:33:51.447Z,75.30
2018-11-06T09:38:55.095Z,75.00
2018-11-06T09:43:58.837Z,75.90
2018-11-06T09:49:02.626Z,75.60
2018-11-06T09:54:06.925Z,74.70
2018-11-06T09:59:10.567Z,73.90
2018-11-06T10:04:14.232Z,75.20
2018-11-06T10:09:17.947Z,75.90
2018-11-06T10:14:21.500Z,74.10
2018-11-06T10:19:25.186Z,73.80
2018-11-06T10:24:30.638Z,73.60
2018-11-06T10:29:34.355Z,73.40
2018-11-06T10:34:37.941Z,73.90
2018-11-06T10:39:41.897Z,73.40
2018-11-06T10:44:45.500Z,73.20
2018-11-06T10:49:49.078Z,71.20
2018-11-06T10:54:53.540Z,70.90
2018-11-06T10:59:57.535Z,69.50
2018-11-06T11:05:01.121Z,68.50
2018-11-06T11:10:04.977Z,68.80
2018-11-06T11:15:08.580Z,69.40
2018-11-06T11:20:13.579Z,67.40
2018-11-06T11:25:17.389Z,68.00
2018-11-06T11:30:21.066Z,68.00
2018-11-06T11:35:24.682Z,67.70
2018-11-06T11:40:28.503Z,67.40
2018-11-06T11:45:32.172Z,68.60
2018-11-06T11:50:35.768Z,65.90
2018-11-06T11:55:40.091Z,65.70
2018-11-06T12:00:43.763Z,66.10
2018-11-06T12:05:47.518Z,64.70
2018-11-06T12:10:51.132Z,63.10
2018-11-06T12:15:54.962Z,63.40
2018-11-06T12:20:58.658Z,63.30
2018-11-06T12:26:02.312Z,63.10
2018-11-06T12:31:06.087Z,63.30
2018-11-06T12:36:09.745Z,62.80
2018-11-06T12:41:13.677Z,62.60
2018-11-06T12:46:17.322Z,62.40
2018-11-06T12:51:20.921Z,62.90
2018-11-06T12:56:24.636Z,63.10
2018-11-06T13:01:28.281Z,62.70
2018-11-06T13:06:31.926Z,62.70
2018-11-06T13:11:35.623Z,62.10
2018-11-06T13:16:39.719Z,61.50
2018-11-06T13:21:45.607Z,62.10
2018-11-06T13:26:49.244Z,62.70
2018-11-06T13:31:52.881Z,63.60
2018-11-06T13:36:56.730Z,63.50
2018-11-06T13:42:01.063Z,64.10
2018-11-06T13:47:04.960Z,64.50
2018-11-06T13:52:10.288Z,63.80
2018-11-06T13:57:13.844Z,64.20
2018-11-06T14:02:17.516Z,64.50
2018-11-06T14:07:24.420Z,64.50
2018-11-06T14:12:28.667Z,64.40
2018-11-06T14:17:32.401Z,64.70
2018-11-06T14:22:40.052Z,65.20
2018-11-06T14:27:43.696Z,65.70
2018-11-06T14:32:48.297Z,66.10
2018-11-06T14:37:52.206Z,66.50
2018-11-06T14:42:56.185Z,67.10
2018-11-06T14:47:59.834Z,67.90
2018-11-06T14:53:03.829Z,68.30
2018-11-06T14:58:07.613Z,68.20
2018-11-06T15:03:13.212Z,69.30
2018-11-06T15:08:16.813Z,70.90
2018-11-06T15:13:20.495Z,72.30
2018-11-06T15:18:24.361Z,73.20
2018-11-06T15:23:34.551Z,72.90
2018-11-06T15:28:38.254Z,69.10
2018-11-06T15:33:42.226Z,67.90
2018-11-06T15:38:46.126Z,65.30
2018-11-06T15:43:49.767Z,64.60
2018-11-06T15:48:56.415Z,65.70
2018-11-06T15:54:00.694Z,64.20
2018-11-06T15:59:04.397Z,62.70
2018-11-06T16:04:08.786Z,61.70
2018-11-06T16:09:12.365Z,61.20
2018-11-06T16:14:15.971Z,60.50
2018-11-06T16:19:19.560Z,60.20
2018-11-06T16:24:24.827Z,60.40
2018-11-06T16:29:28.518Z,61.80
2018-11-06T16:34:34.356Z,62.70
2018-11-06T16:39:38.098Z,63.20
2018-11-06T16:44:41.679Z,63.60
2018-11-06T16:54:55.054Z,64.80
2018-11-06T16:59:58.818Z,64.00
2018-11-06T17:05:05.431Z,64.00
2018-11-06T17:10:11.293Z,63.70
2018-11-06T17:15:16.741Z,63.60
2018-11-06T17:20:21.196Z,63.80
2018-11-06T17:25:24.873Z,63.80
2018-11-06T17:30:28.799Z,64.20
2018-11-06T17:35:33.663Z,64.60
2018-11-06T17:40:37.239Z,64.30
2018-11-06T17:45:40.830Z,63.60
2018-11-06T17:50:44.380Z,62.60
2018-11-06T17:55:47.960Z,62.60
2018-11-06T18:00:51.563Z,62.70
2018-11-06T18:05:55.663Z,62.80
2018-11-06T18:10:59.249Z,63.40
2018-11-06T18:16:03.533Z,63.70
2018-11-06T18:21:09.222Z,63.40
2018-11-06T18:26:12.770Z,64.40
2018-11-06T18:31:16.787Z,64.30
2018-11-06T18:36:20.615Z,64.50
2018-11-06T18:41:24.528Z,64.60
2018-11-06T18:46:28.111Z,63.90
2018-11-06T18:51:32.343Z,63.50
2018-11-06T18:56:36.170Z,63.00
2018-11-06T19:01:39.728Z,63.20
2018-11-06T19:06:44.962Z,63.30
2018-11-06T19:11:48.537Z,63.20
2018-11-06T19:16:52.536Z,63.30
2018-11-06T19:21:56.136Z,63.10
2018-11-06T19:26:59.703Z,62.20
2018-11-06T19:32:03.287Z,62.10
2018-11-06T19:37:07.017Z,61.90
2018-11-06T19:42:10.617Z,61.40
2018-11-06T19:47:14.456Z,61.40
2018-11-06T19:52:18.113Z,61.30
2018-11-06T19:57:21.876Z,62.30
2018-11-06T20:02:26.899Z,62.20
2018-11-06T20:07:30.470Z,61.60
2018-11-06T20:12:34.203Z,62.10
2018-11-06T20:17:40.395Z,62.40
2018-11-06T20:22:44.213Z,63.30
2018-11-06T20:27:48.019Z,63.00
2018-11-06T20:32:51.668Z,62.80
2018-11-06T20:37:55.610Z,62.90
2018-11-06T20:42:59.749Z,62.90
2018-11-06T20:48:03.769Z,62.90
2018-11-06T20:53:07.428Z,63.00
2018-11-06T20:58:11.001Z,63.90
2018-11-06T21:03:15.999Z,63.10
2018-11-06T21:08:20.008Z,63.70
2018-11-06T21:13:23.778Z,63.00
2018-11-06T21:18:27.673Z,62.80
2018-11-06T21:23:31.181Z,64.40
2018-11-06T21:28:34.809Z,65.10
2018-11-06T21:33:38.494Z,65.70
2018-11-06T21:38:42.033Z,66.00
2018-11-06T21:43:45.734Z,66.40
2018-11-06T21:48:49.532Z,67.20
2018-11-06T21:53:53.098Z,66.70
2018-11-06T21:58:56.726Z,67.20
2018-11-06T22:04:00.652Z,67.30
2018-11-06T22:09:05.160Z,67.40
2018-11-06T22:14:09.129Z,67.60
2018-11-06T22:19:13.379Z,68.10
2018-11-06T22:24:16.996Z,68.40
2018-11-06T22:29:20.935Z,68.50
2018-11-06T22:39:35.840Z,68.30
2018-11-06T22:44:42.598Z,69.30
2018-11-06T22:49:46.203Z,69.00
2018-11-06T22:54:50.083Z,69.70
2018-11-06T22:59:53.692Z,69.70
2018-11-06T23:04:57.263Z,69.20
2018-11-06T23:10:02.322Z,69.70
2018-11-06T23:15:06.780Z,69.80
2018-11-06T23:20:10.986Z,70.10
2018-11-06T23:25:15.461Z,70.50
2018-11-06T23:30:21.683Z,70.60
2018-11-06T23:35:25.374Z,70.80
2018-11-06T23:40:29.575Z,69.80
2018-11-06T23:45:34.025Z,69.70
2018-11-06T23:50:37.629Z,69.40
2018-11-06T23:55:41.242Z,70.90
